Aviation Digital Data Service (ADDS)

Output produced by METARs form (0242 UTC 22 July 2017)
found at http://www.aviationweather.gov/adds/metars/
 
LUKK 220230Z 25003KT 210V270 CAVOK 17/13 Q1013 R08/D NOSIG
TAF LUKK 212325Z 2200/2224 19006KT CAVOK 
     BECMG 2207/2209 27009KT 
     TEMPO 2212/2224 SCT035 SCT040CB 
     PROB40 
     TEMPO 2214/2224 34016G26KT -TSRA BKN025CB
       
LUKK 220230Z 25003KT 210V270 CAVOK 17/13 Q1013 R08/D NOSIG
TAF LUKK 212325Z 2200/2224 19006KT CAVOK 
     BECMG 2207/2209 27009KT 
     TEMPO 2212/2224 SCT035 SCT040CB 
     PROB40 
     TEMPO 2214/2224 34016G26KT -TSRA BKN025CB